sensor_id;sensor_type;location;lat;lon;timestamp;pressure;altitude;pressure_sealevel;temperature;humidity
74958;BME280;63741;42.624;26.276;2023-11-21T00:00:03;99556.25;;;8.38;69.62
74958;BME280;63741;42.624;26.276;2023-11-21T00:02:38;99550.97;;;8.38;69.34
74958;BME280;63741;42.624;26.276;2023-11-21T00:05:08;99552.09;;;8.33;70.28
74958;BME280;63741;42.624;26.276;2023-11-21T00:07:37;99556.25;;;7.99;70.86
74958;BME280;63741;42.624;26.276;2023-11-21T00:10:04;99559.56;;;7.76;71.57
74958;BME280;63741;42.624;26.276;2023-11-21T00:12:32;99565.78;;;7.75;71.81
74958;BME280;63741;42.624;26.276;2023-11-21T00:15:00;99557.56;;;7.79;71.37
74958;BME280;63741;42.624;26.276;2023-11-21T00:17:28;99556.00;;;8.02;70.69
74958;BME280;63741;42.624;26.276;2023-11-21T00:19:55;99544.44;;;8.05;70.24
74958;BME280;63741;42.624;26.276;2023-11-21T00:22:22;99558.00;;;8.24;69.30
74958;BME280;63741;42.624;26.276;2023-11-21T00:24:49;99556.97;;;8.14;70.22
74958;BME280;63741;42.624;26.276;2023-11-21T00:27:16;99566.34;;;8.18;69.64
74958;BME280;63741;42.624;26.276;2023-11-21T00:29:43;99559.38;;;8.30;69.46
74958;BME280;63741;42.624;26.276;2023-11-21T00:32:11;99570.25;;;8.38;68.82
74958;BME280;63741;42.624;26.276;2023-11-21T00:34:38;99562.44;;;8.11;69.53
74958;BME280;63741;42.624;26.276;2023-11-21T00:37:05;99562.34;;;8.38;69.72
74958;BME280;63741;42.624;26.276;2023-11-21T00:39:32;99559.31;;;8.44;68.72
74958;BME280;63741;42.624;26.276;2023-11-21T00:41:59;99564.75;;;8.16;69.80
74958;BME280;63741;42.624;26.276;2023-11-21T00:44:26;99568.97;;;8.18;70.02
74958;BME280;63741;42.624;26.276;2023-11-21T00:46:53;99574.03;;;7.96;70.11
74958;BME280;63741;42.624;26.276;2023-11-21T00:49:21;99577.91;;;8.03;70.56
74958;BME280;63741;42.624;26.276;2023-11-21T00:51:48;99579.91;;;7.87;71.29
74958;BME280;63741;42.624;26.276;2023-11-21T00:54:16;99585.53;;;7.95;70.35
74958;BME280;63741;42.624;26.276;2023-11-21T00:56:43;99582.56;;;8.12;69.94
74958;BME280;63741;42.624;26.276;2023-11-21T00:59:10;99574.53;;;7.88;70.04
74958;BME280;63741;42.624;26.276;2023-11-21T01:01:40;99577.91;;;7.77;70.68
74958;BME280;63741;42.624;26.276;2023-11-21T01:04:07;99562.88;;;7.52;71.77
74958;BME280;63741;42.624;26.276;2023-11-21T01:06:34;99558.28;;;7.56;71.01
74958;BME280;63741;42.624;26.276;2023-11-21T01:09:01;99559.94;;;7.57;71.11
74958;BME280;63741;42.624;26.276;2023-11-21T01:11:35;99563.63;;;7.54;71.54
74958;BME280;63741;42.624;26.276;2023-11-21T01:14:03;99567.75;;;7.71;71.06
74958;BME280;63741;42.624;26.276;2023-11-21T01:16:31;99561.69;;;7.83;69.99
74958;BME280;63741;42.624;26.276;2023-11-21T01:18:59;99565.78;;;7.75;69.91
74958;BME280;63741;42.624;26.276;2023-11-21T01:21:26;99562.41;;;7.73;70.29
74958;BME280;63741;42.624;26.276;2023-11-21T01:23:54;99569.66;;;7.69;70.90
74958;BME280;63741;42.624;26.276;2023-11-21T01:26:22;99571.47;;;7.69;70.61
74958;BME280;63741;42.624;26.276;2023-11-21T01:28:49;99565.22;;;7.57;70.41
74958;BME280;63741;42.624;26.276;2023-11-21T01:31:16;99554.28;;;7.76;69.84
74958;BME280;63741;42.624;26.276;2023-11-21T01:33:43;99559.66;;;7.62;70.78
74958;BME280;63741;42.624;26.276;2023-11-21T01:36:10;99555.03;;;7.65;71.22
74958;BME280;63741;42.624;26.276;2023-11-21T01:38:38;99545.09;;;7.56;70.53
74958;BME280;63741;42.624;26.276;2023-11-21T01:41:05;99550.38;;;7.56;71.40
74958;BME280;63741;42.624;26.276;2023-11-21T01:43:33;99555.22;;;7.62;70.46
74958;BME280;63741;42.624;26.276;2023-11-21T01:46:01;99560.03;;;7.43;71.14
74958;BME280;63741;42.624;26.276;2023-11-21T01:48:29;99558.06;;;7.59;70.38
74958;BME280;63741;42.624;26.276;2023-11-21T01:50:56;99560.41;;;7.37;71.64
74958;BME280;63741;42.624;26.276;2023-11-21T01:53:24;99553.25;;;6.84;73.38
74958;BME280;63741;42.624;26.276;2023-11-21T01:55:53;99556.41;;;7.04;73.17
74958;BME280;63741;42.624;26.276;2023-11-21T01:58:25;99550.66;;;7.12;73.02
74958;BME280;63741;42.624;26.276;2023-11-21T02:00:53;99546.81;;;7.30;72.45
74958;BME280;63741;42.624;26.276;2023-11-21T02:03:21;99550.75;;;7.37;72.49
74958;BME280;63741;42.624;26.276;2023-11-21T02:05:49;99551.97;;;7.04;73.10
74958;BME280;63741;42.624;26.276;2023-11-21T02:08:16;99544.16;;;7.17;71.43
74958;BME280;63741;42.624;26.276;2023-11-21T02:10:43;99554.19;;;7.25;71.83
74958;BME280;63741;42.624;26.276;2023-11-21T02:13:10;99551.84;;;7.20;71.86
74958;BME280;63741;42.624;26.276;2023-11-21T02:15:38;99559.63;;;7.22;72.73
74958;BME280;63741;42.624;26.276;2023-11-21T02:18:05;99565.13;;;7.31;71.90
74958;BME280;63741;42.624;26.276;2023-11-21T02:20:33;99564.81;;;7.23;71.21
74958;BME280;63741;42.624;26.276;2023-11-21T02:23:03;99566.44;;;7.39;71.69
74958;BME280;63741;42.624;26.276;2023-11-21T02:25:32;99566.56;;;7.23;70.87
74958;BME280;63741;42.624;26.276;2023-11-21T02:28:02;99568.72;;;7.03;71.41
74958;BME280;63741;42.624;26.276;2023-11-21T02:30:30;99577.78;;;7.12;71.49
74958;BME280;63741;42.624;26.276;2023-11-21T02:33:01;99582.31;;;7.10;71.26
74958;BME280;63741;42.624;26.276;2023-11-21T02:35:30;99575.53;;;7.20;72.11
74958;BME280;63741;42.624;26.276;2023-11-21T02:37:58;99572.22;;;7.44;71.21
74958;BME280;63741;42.624;26.276;2023-11-21T02:40:26;99576.19;;;7.37;71.14
74958;BME280;63741;42.624;26.276;2023-11-21T02:42:54;99577.25;;;7.34;71.27
74958;BME280;63741;42.624;26.276;2023-11-21T02:45:21;99585.56;;;7.28;71.01
74958;BME280;63741;42.624;26.276;2023-11-21T02:47:50;99589.44;;;7.08;71.59
74958;BME280;63741;42.624;26.276;2023-11-21T02:50:17;99577.63;;;7.01;71.47
74958;BME280;63741;42.624;26.276;2023-11-21T02:52:46;99583.06;;;7.12;71.70
74958;BME280;63741;42.624;26.276;2023-11-21T02:55:13;99575.16;;;7.12;72.16
74958;BME280;63741;42.624;26.276;2023-11-21T02:57:40;99571.81;;;7.23;71.82
74958;BME280;63741;42.624;26.276;2023-11-21T03:00:08;99577.66;;;7.28;71.26
74958;BME280;63741;42.624;26.276;2023-11-21T03:02:36;99581.13;;;7.28;71.85
74958;BME280;63741;42.624;26.276;2023-11-21T03:05:07;99591.91;;;7.38;70.41
74958;BME280;63741;42.624;26.276;2023-11-21T03:07:39;99590.16;;;7.51;70.42
74958;BME280;63741;42.624;26.276;2023-11-21T03:10:08;99595.84;;;7.31;71.22
74958;BME280;63741;42.624;26.276;2023-11-21T03:12:40;99590.03;;;7.53;70.32
74958;BME280;63741;42.624;26.276;2023-11-21T03:15:07;99586.53;;;7.40;70.46
74958;BME280;63741;42.624;26.276;2023-11-21T03:17:36;99588.84;;;7.17;71.32
74958;BME280;63741;42.624;26.276;2023-11-21T03:20:04;99588.44;;;7.11;72.24
74958;BME280;63741;42.624;26.276;2023-11-21T03:22:32;99589.94;;;7.27;71.63
74958;BME280;63741;42.624;26.276;2023-11-21T03:25:00;99591.53;;;7.03;72.04
74958;BME280;63741;42.624;26.276;2023-11-21T03:27:27;99586.13;;;7.19;71.44
74958;BME280;63741;42.624;26.276;2023-11-21T03:29:54;99590.16;;;7.24;70.82
74958;BME280;63741;42.624;26.276;2023-11-21T03:32:21;99590.59;;;7.31;71.46
74958;BME280;63741;42.624;26.276;2023-11-21T03:34:56;99587.59;;;7.37;70.30
74958;BME280;63741;42.624;26.276;2023-11-21T03:37:25;99586.81;;;7.35;71.01
74958;BME280;63741;42.624;26.276;2023-11-21T03:39:55;99583.25;;;7.36;70.58
74958;BME280;63741;42.624;26.276;2023-11-21T03:42:23;99591.72;;;7.54;70.49
74958;BME280;63741;42.624;26.276;2023-11-21T03:44:53;99588.72;;;7.33;70.36
74958;BME280;63741;42.624;26.276;2023-11-21T03:47:20;99591.41;;;7.46;70.54
74958;BME280;63741;42.624;26.276;2023-11-21T03:49:48;99583.41;;;7.20;70.91
74958;BME280;63741;42.624;26.276;2023-11-21T03:52:15;99586.47;;;7.27;70.59
74958;BME280;63741;42.624;26.276;2023-11-21T03:54:43;99597.94;;;7.26;70.71
74958;BME280;63741;42.624;26.276;2023-11-21T03:57:11;99604.00;;;7.14;70.40
74958;BME280;63741;42.624;26.276;2023-11-21T03:59:42;99601.47;;;7.12;69.54
74958;BME280;63741;42.624;26.276;2023-11-21T04:02:10;99601.38;;;6.44;72.03
74958;BME280;63741;42.624;26.276;2023-11-21T04:04:37;99610.53;;;6.65;71.08
74958;BME280;63741;42.624;26.276;2023-11-21T04:07:04;99614.84;;;6.95;70.12
74958;BME280;63741;42.624;26.276;2023-11-21T04:09:31;99605.75;;;6.86;70.28
74958;BME280;63741;42.624;26.276;2023-11-21T04:11:58;99622.53;;;6.98;69.14
74958;BME280;63741;42.624;26.276;2023-11-21T04:14:25;99617.66;;;6.92;69.70
74958;BME280;63741;42.624;26.276;2023-11-21T04:16:52;99612.75;;;7.00;69.89
74958;BME280;63741;42.624;26.276;2023-11-21T04:19:20;99618.13;;;6.98;69.10
74958;BME280;63741;42.624;26.276;2023-11-21T04:21:48;99622.34;;;6.87;70.17
74958;BME280;63741;42.624;26.276;2023-11-21T04:24:15;99611.19;;;6.69;70.96
74958;BME280;63741;42.624;26.276;2023-11-21T04:26:43;99620.00;;;6.96;69.64
74958;BME280;63741;42.624;26.276;2023-11-21T04:29:10;99610.09;;;7.14;69.17
74958;BME280;63741;42.624;26.276;2023-11-21T04:31:37;99602.41;;;7.11;68.58
74958;BME280;63741;42.624;26.276;2023-11-21T04:34:05;99604.94;;;7.13;68.51
74958;BME280;63741;42.624;26.276;2023-11-21T04:36:32;99597.03;;;7.13;68.79
74958;BME280;63741;42.624;26.276;2023-11-21T04:38:59;99594.72;;;7.08;69.65
74958;BME280;63741;42.624;26.276;2023-11-21T04:41:26;99594.28;;;7.01;69.53
74958;BME280;63741;42.624;26.276;2023-11-21T04:43:53;99604.44;;;6.79;69.67
74958;BME280;63741;42.624;26.276;2023-11-21T04:46:20;99607.16;;;6.77;70.41
74958;BME280;63741;42.624;26.276;2023-11-21T04:48:47;99607.06;;;6.50;71.07
74958;BME280;63741;42.624;26.276;2023-11-21T04:51:14;99612.25;;;6.52;70.99
74958;BME280;63741;42.624;26.276;2023-11-21T04:53:41;99617.22;;;6.56;70.63
74958;BME280;63741;42.624;26.276;2023-11-21T04:56:08;99629.59;;;6.54;70.47
74958;BME280;63741;42.624;26.276;2023-11-21T04:58:35;99638.50;;;6.23;71.39
74958;BME280;63741;42.624;26.276;2023-11-21T05:01:02;99623.41;;;6.55;70.74
74958;BME280;63741;42.624;26.276;2023-11-21T05:03:34;99624.84;;;6.61;69.43
74958;BME280;63741;42.624;26.276;2023-11-21T05:06:09;99616.56;;;6.67;69.30
74958;BME280;63741;42.624;26.276;2023-11-21T05:08:39;99619.16;;;6.96;68.63
74958;BME280;63741;42.624;26.276;2023-11-21T05:11:10;99626.00;;;6.98;69.09
74958;BME280;63741;42.624;26.276;2023-11-21T05:13:37;99627.44;;;6.90;68.37
74958;BME280;63741;42.624;26.276;2023-11-21T05:16:10;99633.78;;;7.00;68.35
74958;BME280;63741;42.624;26.276;2023-11-21T05:18:37;99631.28;;;6.98;68.55
74958;BME280;63741;42.624;26.276;2023-11-21T05:21:07;99637.34;;;7.13;67.84
74958;BME280;63741;42.624;26.276;2023-11-21T05:23:34;99652.16;;;7.14;68.28
74958;BME280;63741;42.624;26.276;2023-11-21T05:26:01;99654.44;;;7.20;69.22
74958;BME280;63741;42.624;26.276;2023-11-21T05:28:28;99639.00;;;7.82;66.96
74958;BME280;63741;42.624;26.276;2023-11-21T05:30:56;99648.66;;;8.22;64.95
74958;BME280;63741;42.624;26.276;2023-11-21T05:33:40;99651.13;;;8.38;65.40
74958;BME280;63741;42.624;26.276;2023-11-21T05:36:07;99657.44;;;8.35;64.97
74958;BME280;63741;42.624;26.276;2023-11-21T05:38:35;99644.16;;;8.75;63.92
74958;BME280;63741;42.624;26.276;2023-11-21T05:41:03;99652.19;;;9.23;62.28
74958;BME280;63741;42.624;26.276;2023-11-21T05:43:30;99650.25;;;9.61;61.64
74958;BME280;63741;42.624;26.276;2023-11-21T05:45:59;99646.63;;;9.51;61.54
74958;BME280;63741;42.624;26.276;2023-11-21T05:48:26;99635.56;;;9.81;60.78
74958;BME280;63741;42.624;26.276;2023-11-21T05:50:53;99639.31;;;10.14;60.16
74958;BME280;63741;42.624;26.276;2023-11-21T05:53:20;99636.28;;;10.07;60.44
74958;BME280;63741;42.624;26.276;2023-11-21T05:55:48;99640.31;;;10.24;59.40
74958;BME280;63741;42.624;26.276;2023-11-21T05:58:15;99636.50;;;9.69;61.35
74958;BME280;63741;42.624;26.276;2023-11-21T06:00:42;99632.94;;;8.97;63.43
74958;BME280;63741;42.624;26.276;2023-11-21T06:03:09;99644.47;;;8.83;64.38
74958;BME280;63741;42.624;26.276;2023-11-21T06:05:36;99655.56;;;8.63;65.16
74958;BME280;63741;42.624;26.276;2023-11-21T06:08:04;99662.53;;;8.64;64.11
74958;BME280;63741;42.624;26.276;2023-11-21T06:10:31;99665.28;;;8.09;66.79
74958;BME280;63741;42.624;26.276;2023-11-21T06:12:58;99653.59;;;8.14;67.09
74958;BME280;63741;42.624;26.276;2023-11-21T06:15:30;99662.09;;;7.92;67.65
74958;BME280;63741;42.624;26.276;2023-11-21T06:17:57;99667.63;;;7.74;68.79
74958;BME280;63741;42.624;26.276;2023-11-21T06:20:24;99673.38;;;7.67;69.32
74958;BME280;63741;42.624;26.276;2023-11-21T06:22:51;99669.72;;;7.69;69.45
74958;BME280;63741;42.624;26.276;2023-11-21T06:25:18;99655.00;;;7.52;69.86
74958;BME280;63741;42.624;26.276;2023-11-21T06:27:47;99655.50;;;7.72;70.10
74958;BME280;63741;42.624;26.276;2023-11-21T06:30:15;99654.88;;;7.68;69.50
74958;BME280;63741;42.624;26.276;2023-11-21T06:32:42;99653.97;;;7.82;69.28
74958;BME280;63741;42.624;26.276;2023-11-21T06:35:14;99668.91;;;7.81;69.16
74958;BME280;63741;42.624;26.276;2023-11-21T06:37:44;99667.44;;;7.77;69.98
74958;BME280;63741;42.624;26.276;2023-11-21T06:40:17;99665.34;;;7.82;70.54
74958;BME280;63741;42.624;26.276;2023-11-21T06:42:46;99661.56;;;7.87;70.06
74958;BME280;63741;42.624;26.276;2023-11-21T06:45:15;99670.44;;;7.71;70.40
74958;BME280;63741;42.624;26.276;2023-11-21T06:47:42;99662.59;;;7.84;70.74
74958;BME280;63741;42.624;26.276;2023-11-21T06:50:10;99657.22;;;7.85;70.42
74958;BME280;63741;42.624;26.276;2023-11-21T06:52:37;99653.13;;;7.81;71.24
74958;BME280;63741;42.624;26.276;2023-11-21T06:55:04;99661.06;;;8.07;71.10
74958;BME280;63741;42.624;26.276;2023-11-21T06:57:31;99659.47;;;7.92;72.28
74958;BME280;63741;42.624;26.276;2023-11-21T06:59:59;99652.41;;;7.92;72.89
74958;BME280;63741;42.624;26.276;2023-11-21T07:02:27;99662.63;;;7.97;74.42
74958;BME280;63741;42.624;26.276;2023-11-21T07:04:54;99657.09;;;8.14;71.36
74958;BME280;63741;42.624;26.276;2023-11-21T07:07:22;99659.59;;;8.16;73.57
74958;BME280;63741;42.624;26.276;2023-11-21T07:09:49;99652.88;;;8.24;73.81
74958;BME280;63741;42.624;26.276;2023-11-21T07:12:16;99656.47;;;8.23;73.24
74958;BME280;63741;42.624;26.276;2023-11-21T07:14:43;99650.38;;;8.35;74.65
74958;BME280;63741;42.624;26.276;2023-11-21T07:17:11;99647.34;;;8.42;75.54
74958;BME280;63741;42.624;26.276;2023-11-21T07:19:39;99649.84;;;8.69;74.77
74958;BME280;63741;42.624;26.276;2023-11-21T07:22:06;99632.66;;;8.89;73.62
74958;BME280;63741;42.624;26.276;2023-11-21T07:24:33;99640.03;;;8.83;73.26
74958;BME280;63741;42.624;26.276;2023-11-21T07:27:00;99647.72;;;8.99;73.57
74958;BME280;63741;42.624;26.276;2023-11-21T07:29:27;99645.25;;;9.46;70.61
74958;BME280;63741;42.624;26.276;2023-11-21T07:31:56;99653.22;;;9.81;71.21
74958;BME280;63741;42.624;26.276;2023-11-21T07:34:24;99655.78;;;9.82;69.96
74958;BME280;63741;42.624;26.276;2023-11-21T07:36:51;99657.31;;;9.85;69.10
74958;BME280;63741;42.624;26.276;2023-11-21T07:39:17;99658.56;;;9.68;69.17
74958;BME280;63741;42.624;26.276;2023-11-21T07:41:45;99665.34;;;9.59;70.78
74958;BME280;63741;42.624;26.276;2023-11-21T07:44:16;99677.28;;;9.65;69.44
74958;BME280;63741;42.624;26.276;2023-11-21T07:46:47;99673.03;;;9.75;69.59
74958;BME280;63741;42.624;26.276;2023-11-21T07:49:17;99677.56;;;9.97;69.63
74958;BME280;63741;42.624;26.276;2023-11-21T07:51:47;99672.00;;;10.59;67.34
74958;BME280;63741;42.624;26.276;2023-11-21T07:54:14;99678.84;;;11.07;65.89
74958;BME280;63741;42.624;26.276;2023-11-21T07:56:42;99683.53;;;10.70;67.15
74958;BME280;63741;42.624;26.276;2023-11-21T07:59:09;99686.56;;;10.87;66.04
74958;BME280;63741;42.624;26.276;2023-11-21T08:01:37;99678.50;;;11.11;66.06
74958;BME280;63741;42.624;26.276;2023-11-21T08:04:05;99680.00;;;11.59;63.92
74958;BME280;63741;42.624;26.276;2023-11-21T08:06:33;99677.97;;;12.06;62.44
74958;BME280;63741;42.624;26.276;2023-11-21T08:09:00;99684.81;;;12.29;61.28
74958;BME280;63741;42.624;26.276;2023-11-21T08:11:27;99680.25;;;11.99;62.20
74958;BME280;63741;42.624;26.276;2023-11-21T08:13:58;99679.81;;;11.94;62.18
74958;BME280;63741;42.624;26.276;2023-11-21T08:16:26;99672.34;;;11.77;62.26
74958;BME280;63741;42.624;26.276;2023-11-21T08:18:54;99662.81;;;11.97;62.69
74958;BME280;63741;42.624;26.276;2023-11-21T08:21:21;99663.66;;;12.18;62.12
74958;BME280;63741;42.624;26.276;2023-11-21T08:23:51;99659.25;;;12.70;61.18
74958;BME280;63741;42.624;26.276;2023-11-21T08:26:23;99657.16;;;13.04;60.18
74958;BME280;63741;42.624;26.276;2023-11-21T08:28:50;99657.31;;;13.12;59.97
74958;BME280;63741;42.624;26.276;2023-11-21T08:31:26;99663.59;;;13.52;57.36
74958;BME280;63741;42.624;26.276;2023-11-21T08:33:53;99653.97;;;13.60;56.98
74958;BME280;63741;42.624;26.276;2023-11-21T08:36:24;99647.41;;;13.55;56.67
74958;BME280;63741;42.624;26.276;2023-11-21T08:38:51;99653.44;;;13.86;56.69
74958;BME280;63741;42.624;26.276;2023-11-21T08:41:19;99646.88;;;13.90;55.74
74958;BME280;63741;42.624;26.276;2023-11-21T08:43:49;99637.34;;;14.07;56.37
74958;BME280;63741;42.624;26.276;2023-11-21T08:46:17;99633.31;;;13.93;56.63
74958;BME280;63741;42.624;26.276;2023-11-21T08:48:45;99630.34;;;14.25;55.67
74958;BME280;63741;42.624;26.276;2023-11-21T08:51:12;99630.91;;;14.09;55.70
74958;BME280;63741;42.624;26.276;2023-11-21T08:53:40;99625.69;;;14.27;56.08
74958;BME280;63741;42.624;26.276;2023-11-21T08:56:08;99623.19;;;14.26;55.51
74958;BME280;63741;42.624;26.276;2023-11-21T08:58:38;99619.81;;;14.24;55.43
74958;BME280;63741;42.624;26.276;2023-11-21T09:01:05;99618.94;;;14.62;55.08
74958;BME280;63741;42.624;26.276;2023-11-21T09:03:34;99612.72;;;14.71;54.86
74958;BME280;63741;42.624;26.276;2023-11-21T09:06:01;99614.47;;;14.90;54.57
74958;BME280;63741;42.624;26.276;2023-11-21T09:08:28;99612.94;;;14.87;54.06
74958;BME280;63741;42.624;26.276;2023-11-21T09:10:56;99608.63;;;14.77;54.37
74958;BME280;63741;42.624;26.276;2023-11-21T09:13:23;99599.31;;;14.90;54.00
74958;BME280;63741;42.624;26.276;2023-11-21T09:15:52;99589.16;;;15.04;53.83
74958;BME280;63741;42.624;26.276;2023-11-21T09:18:19;99592.25;;;14.72;53.04
74958;BME280;63741;42.624;26.276;2023-11-21T09:20:46;99580.00;;;14.88;52.33
74958;BME280;63741;42.624;26.276;2023-11-21T09:23:13;99582.22;;;14.93;52.36
74958;BME280;63741;42.624;26.276;2023-11-21T09:25:40;99577.97;;;14.73;52.37
74958;BME280;63741;42.624;26.276;2023-11-21T09:28:07;99578.50;;;15.04;51.96
74958;BME280;63741;42.624;26.276;2023-11-21T09:30:35;99569.28;;;14.98;52.24
74958;BME280;63741;42.624;26.276;2023-11-21T09:33:03;99565.69;;;14.89;51.96
74958;BME280;63741;42.624;26.276;2023-11-21T09:35:34;99565.16;;;15.13;51.99
74958;BME280;63741;42.624;26.276;2023-11-21T09:38:01;99561.41;;;15.24;52.01
74958;BME280;63741;42.624;26.276;2023-11-21T09:40:33;99564.22;;;15.05;52.97
74958;BME280;63741;42.624;26.276;2023-11-21T09:43:00;99565.56;;;15.36;52.76
74958;BME280;63741;42.624;26.276;2023-11-21T09:45:38;99566.38;;;15.37;51.76
74958;BME280;63741;42.624;26.276;2023-11-21T09:48:07;99562.09;;;15.72;52.19
74958;BME280;63741;42.624;26.276;2023-11-21T09:50:35;99555.28;;;15.41;52.53
74958;BME280;63741;42.624;26.276;2023-11-21T09:53:13;99554.34;;;15.51;52.44
74958;BME280;63741;42.624;26.276;2023-11-21T09:55:44;99555.41;;;15.58;53.13
74958;BME280;63741;42.624;26.276;2023-11-21T09:58:13;99549.78;;;15.79;51.99
74958;BME280;63741;42.624;26.276;2023-11-21T10:00:42;99536.69;;;15.50;52.55
74958;BME280;63741;42.624;26.276;2023-11-21T10:03:10;99538.06;;;15.54;52.16
74958;BME280;63741;42.624;26.276;2023-11-21T10:05:39;99532.94;;;15.60;50.75
74958;BME280;63741;42.624;26.276;2023-11-21T10:08:10;99534.63;;;15.79;51.27
74958;BME280;63741;42.624;26.276;2023-11-21T10:10:42;99524.44;;;16.27;50.35
74958;BME280;63741;42.624;26.276;2023-11-21T10:13:12;99525.88;;;16.13;50.02
74958;BME280;63741;42.624;26.276;2023-11-21T10:15:44;99522.88;;;15.90;50.64
74958;BME280;63741;42.624;26.276;2023-11-21T10:18:16;99517.28;;;16.01;49.70
74958;BME280;63741;42.624;26.276;2023-11-21T10:20:44;99504.19;;;16.16;49.48
74958;BME280;63741;42.624;26.276;2023-11-21T10:23:20;99505.34;;;16.39;48.87
74958;BME280;63741;42.624;26.276;2023-11-21T10:25:50;99490.97;;;16.06;49.26
74958;BME280;63741;42.624;26.276;2023-11-21T10:28:19;99504.94;;;16.26;48.11
74958;BME280;63741;42.624;26.276;2023-11-21T10:30:48;99489.41;;;16.64;47.88
74958;BME280;63741;42.624;26.276;2023-11-21T10:33:15;99493.63;;;16.32;48.27
74958;BME280;63741;42.624;26.276;2023-11-21T10:35:46;99495.94;;;16.01;48.71
74958;BME280;63741;42.624;26.276;2023-11-21T10:38:15;99485.84;;;16.13;49.58
74958;BME280;63741;42.624;26.276;2023-11-21T10:40:43;99487.84;;;16.45;47.91
74958;BME280;63741;42.624;26.276;2023-11-21T10:43:11;99491.56;;;16.52;47.89
74958;BME280;63741;42.624;26.276;2023-11-21T10:45:40;99483.97;;;16.74;47.52
74958;BME280;63741;42.624;26.276;2023-11-21T10:48:09;99470.88;;;16.62;47.24
74958;BME280;63741;42.624;26.276;2023-11-21T10:50:46;99473.53;;;17.05;45.91
74958;BME280;63741;42.624;26.276;2023-11-21T10:53:13;99470.88;;;17.21;46.15
74958;BME280;63741;42.624;26.276;2023-11-21T10:55:41;99464.34;;;17.07;46.71
74958;BME280;63741;42.624;26.276;2023-11-21T10:58:10;99454.09;;;16.78;46.30
74958;BME280;63741;42.624;26.276;2023-11-21T11:00:40;99451.97;;;16.98;47.10
74958;BME280;63741;42.624;26.276;2023-11-21T11:03:07;99455.66;;;17.05;46.88
74958;BME280;63741;42.624;26.276;2023-11-21T11:05:43;99450.50;;;17.20;46.78
74958;BME280;63741;42.624;26.276;2023-11-21T11:08:21;99450.16;;;17.15;46.98
74958;BME280;63741;42.624;26.276;2023-11-21T11:10:54;99440.78;;;17.03;47.06
74958;BME280;63741;42.624;26.276;2023-11-21T11:13:21;99437.94;;;17.04;49.42
74958;BME280;63741;42.624;26.276;2023-11-21T11:15:50;99438.16;;;16.60;49.81
74958;BME280;63741;42.624;26.276;2023-11-21T11:18:18;99436.03;;;16.22;51.60
74958;BME280;63741;42.624;26.276;2023-11-21T11:20:49;99437.81;;;16.13;50.46
74958;BME280;63741;42.624;26.276;2023-11-21T11:27:01;99426.59;;;16.52;50.37
74958;BME280;63741;42.624;26.276;2023-11-21T11:29:39;99420.72;;;16.90;50.03
74958;BME280;63741;42.624;26.276;2023-11-21T11:32:25;99410.22;;;17.13;49.31
74958;BME280;63741;42.624;26.276;2023-11-21T11:35:05;99421.56;;;16.99;49.28
74958;BME280;63741;42.624;26.276;2023-11-21T11:37:34;99411.06;;;16.98;49.38
74958;BME280;63741;42.624;26.276;2023-11-21T11:40:06;99408.03;;;16.84;48.75
74958;BME280;63741;42.624;26.276;2023-11-21T11:42:33;99402.53;;;16.86;49.00
74958;BME280;63741;42.624;26.276;2023-11-21T11:45:00;99406.06;;;17.03;49.20
74958;BME280;63741;42.624;26.276;2023-11-21T11:47:28;99394.38;;;17.20;49.50
74958;BME280;63741;42.624;26.276;2023-11-21T11:52:48;99395.50;;;17.75;47.85
74958;BME280;63741;42.624;26.276;2023-11-21T11:55:20;99384.91;;;17.89;47.79
74958;BME280;63741;42.624;26.276;2023-11-21T11:57:53;99375.81;;;17.51;48.15
74958;BME280;63741;42.624;26.276;2023-11-21T12:02:54;99372.97;;;16.96;51.00
74958;BME280;63741;42.624;26.276;2023-11-21T12:05:24;99366.63;;;17.29;50.45
74958;BME280;63741;42.624;26.276;2023-11-21T12:07:59;99373.13;;;17.18;50.15
74958;BME280;63741;42.624;26.276;2023-11-21T12:10:29;99360.78;;;17.34;49.68
74958;BME280;63741;42.624;26.276;2023-11-21T12:12:58;99352.91;;;17.40;50.07
74958;BME280;63741;42.624;26.276;2023-11-21T12:15:26;99357.28;;;17.41;49.33
74958;BME280;63741;42.624;26.276;2023-11-21T12:17:56;99358.13;;;16.85;50.33
74958;BME280;63741;42.624;26.276;2023-11-21T12:20:24;99358.78;;;16.87;51.25
74958;BME280;63741;42.624;26.276;2023-11-21T12:22:56;99354.13;;;16.89;50.28
74958;BME280;63741;42.624;26.276;2023-11-21T12:25:27;99361.13;;;16.98;49.70
74958;BME280;63741;42.624;26.276;2023-11-21T12:28:02;99344.44;;;16.88;49.86
74958;BME280;63741;42.624;26.276;2023-11-21T12:30:31;99345.94;;;16.99;50.54
74958;BME280;63741;42.624;26.276;2023-11-21T12:32:59;99348.75;;;17.05;50.03
74958;BME280;63741;42.624;26.276;2023-11-21T12:35:32;99350.59;;;17.13;50.22
74958;BME280;63741;42.624;26.276;2023-11-21T12:38:03;99352.44;;;16.88;50.18
74958;BME280;63741;42.624;26.276;2023-11-21T12:40:32;99358.88;;;16.69;51.00
74958;BME280;63741;42.624;26.276;2023-11-21T12:43:00;99358.03;;;16.44;52.19
74958;BME280;63741;42.624;26.276;2023-11-21T12:45:29;99359.50;;;16.47;51.76
74958;BME280;63741;42.624;26.276;2023-11-21T12:48:03;99355.25;;;16.11;52.71
74958;BME280;63741;42.624;26.276;2023-11-21T12:50:36;99350.34;;;15.90;54.19
74958;BME280;63741;42.624;26.276;2023-11-21T12:53:09;99344.59;;;15.77;54.41
74958;BME280;63741;42.624;26.276;2023-11-21T12:55:38;99348.81;;;15.88;54.55
74958;BME280;63741;42.624;26.276;2023-11-21T12:58:07;99339.75;;;15.73;54.53
74958;BME280;63741;42.624;26.276;2023-11-21T13:00:39;99341.69;;;16.63;51.76
74958;BME280;63741;42.624;26.276;2023-11-21T13:03:11;99344.53;;;17.52;50.01
74958;BME280;63741;42.624;26.276;2023-11-21T13:05:47;99338.47;;;16.35;51.67
74958;BME280;63741;42.624;26.276;2023-11-21T13:08:22;99336.13;;;15.82;52.98
74958;BME280;63741;42.624;26.276;2023-11-21T13:10:55;99326.22;;;15.66;53.63